Data for 02/19/2013

Time Sea-Level Adjusted Pressure Absolute Pressure Temperature Relative Humidity Dew Point   
(mb) (inHg) (mb) (inHg) (C) (F) (%) (C) (F)
00:05 1013 29.91 842 24.86 -6.2 20.9 65 -11.7 10.9
00:10 1013 29.91 842 24.86 -5.9 21.4 62 -11.9 10.5
00:15 1013 29.91 842 24.86 -5.9 21.4 61 -12.3 9.9
00:20 1013 29.91 842 24.86 -5.9 21.5 59 -12.6 9.3
00:25 1013 29.91 842 24.86 -5.8 21.5 59 -12.6 9.3
00:30 1013 29.91 842 24.86 -5.9 21.3 60 -12.5 9.5
00:35 1013 29.91 842 24.86 -6.3 20.7 61 -12.6 9.4
00:40 1013 29.91 842 24.86 -6.2 20.9 60 -12.7 9.2
00:45 1013 29.91 842 24.86 -6.1 21 59 -12.9 8.9
00:50 1013 29.91 842 24.86 -6.1 21 59 -12.8 8.9
00:55 1013 29.91 842 24.86 -6.1 21 59 -12.9 8.7
01:00 1013 29.91 842 24.86 -6 21.2 58 -12.9 8.8
01:05 1013 29.91 842 24.86 -6 21.2 58 -13 8.6
01:10 1013 29.91 842 24.86 -5.9 21.4 57 -13.1 8.5
01:15 1013 29.91 842 24.86 -5.7 21.8 56 -13.2 8.3
01:20 1012 29.88 842 24.86 -5.4 22.2 54 -13.3 8.1
01:25 1012 29.88 842 24.86 -5.2 22.7 53 -13.2 8.2
01:30 1012 29.88 842 24.86 -5 23.1 53 -13.2 8.2
01:35 1012 29.88 842 24.86 -5.1 22.7 54 -13 8.7
01:40 1012 29.88 842 24.86 -5.1 22.8 54 -13.1 8.4
01:45 1012 29.88 841 24.83 -4.9 23.1 53 -13.1 8.5
01:50 1012 29.88 841 24.83 -5.1 22.8 53 -13.1 8.3
01:55 1012 29.88 841 24.83 -4.9 23.1 53 -13.1 8.4
02:00 1012 29.88 841 24.83 -4.8 23.3 54 -12.7 9.2
02:05 1012 29.88 841 24.83 -4.9 23.1 58 -12 10.5
02:10 1012 29.88 841 24.83 -5.2 22.7 62 -11.4 11.5
02:15 1012 29.88 841 24.83 -5.4 22.3 61 -11.7 10.9
02:20 1012 29.88 841 24.83 -5.4 22.3 63 -11.4 11.5
02:25 1012 29.88 841 24.83 -5.6 21.9 63 -11.6 11.2
02:30 1012 29.88 841 24.83 -5.5 22.1 59 -12.2 10
02:35 1012 29.88 841 24.83 -5.4 22.3 59 -12.2 10
02:40 1011 29.85 841 24.83 -5.5 22 60 -12.2 10.1
02:45 1011 29.85 841 24.83 -5.6 21.9 60 -12.3 9.9
02:50 1011 29.85 841 24.83 -5.4 22.2 59 -12.3 9.8
02:55 1011 29.85 841 24.83 -5.3 22.5 57 -12.4 9.6
03:00 1011 29.85 841 24.83 -4.9 23.2 55 -12.6 9.2
03:05 1011 29.85 841 24.83 -4.6 23.8 54 -12.5 9.5
03:10 1011 29.85 841 24.83 -4.6 23.7 54 -12.7 9.2
03:15 1011 29.85 841 24.83 -4.5 23.8 54 -12.4 9.6
03:20 1011 29.85 841 24.83 -4.6 23.8 56 -12 10.3
03:25 1011 29.85 840 24.81 -5 22.9 58 -12.1 10.3
03:30 1011 29.85 840 24.81 -5.4 22.3 61 -11.9 10.6
03:35 1011 29.85 840 24.81 -5.7 21.7 63 -11.6 11.2
03:40 1011 29.85 840 24.81 -5.8 21.6 61 -12.1 10.2
03:45 1011 29.85 840 24.81 -5.4 22.3 61 -11.8 10.8
03:50 1011 29.85 840 24.81 -5 23 60 -11.7 11
03:55 1011 29.85 840 24.81 -5.1 22.9 62 -11.2 11.8
04:00 1011 29.85 840 24.81 -5.1 22.8 57 -12.4 9.7
04:05 1011 29.85 840 24.81 -5.1 22.9 59 -11.9 10.7
04:10 1011 29.85 840 24.81 -5.5 22 63 -11.4 11.4
04:15 1011 29.85 840 24.81 -5.7 21.8 65 -11.3 11.6
04:20 1011 29.85 840 24.81 -5.5 22.1 59 -12.3 9.9
04:25 1011 29.85 840 24.81 -4.9 23.2 56 -12.5 9.5
04:30 1011 29.85 840 24.81 -4.8 23.4 56 -12.3 9.9
04:35 1011 29.85 840 24.81 -4.7 23.6 54 -12.7 9.2
04:40 1011 29.85 840 24.81 -4.3 24.3 52 -12.8 9
04:45 1010 29.83 840 24.81 -4.1 24.6 51 -12.8 8.9
04:50 1010 29.83 840 24.81 -4 24.8 51 -12.7 9.2
04:55 1010 29.83 840 24.81 -4 24.9 50 -12.8 8.9
05:00 1010 29.83 839 24.78 -4 24.9 51 -12.7 9.1
05:05 1010 29.83 839 24.78 -4 24.8 51 -12.6 9.2
05:10 1010 29.83 839 24.78 -4 24.8 50 -12.8 8.9
05:15 1010 29.83 839 24.78 -4 24.8 50 -12.9 8.7
05:20 1010 29.83 839 24.78 -4 24.9 50 -12.9 8.7
05:25 1010 29.83 839 24.78 -4 24.9 50 -13 8.6
05:30 1010 29.83 839 24.78 -3.9 24.9 49 -13.1 8.4
05:35 1010 29.83 839 24.78 -3.9 25 48 -13.5 7.8
05:40 1010 29.83 839 24.78 -3.8 25.1 47 -13.4 7.8
05:45 1010 29.83 839 24.78 -3.8 25.2 46 -13.7 7.4
05:50 1010 29.83 839 24.78 -3.7 25.4 46 -13.6 7.5
05:55 1010 29.83 839 24.78 -3.6 25.4 47 -13.5 7.7
06:00 1010 29.83 839 24.78 -3.7 25.4 47 -13.4 7.8
06:05 1010 29.83 839 24.78 -3.7 25.4 46 -13.6 7.5
06:10 1010 29.83 839 24.78 -3.7 25.4 47 -13.6 7.6
06:15 1010 29.83 839 24.78 -3.7 25.3 47 -13.5 7.7
06:20 1010 29.83 839 24.78 -3.7 25.3 45 -13.9 7
06:25 1010 29.83 839 24.78 -3.6 25.4 46 -13.6 7.5
06:30 1010 29.83 839 24.78 -3.7 25.4 47 -13.5 7.7
06:35 1010 29.83 839 24.78 -3.9 24.9 49 -13.2 8.3
06:40 1010 29.83 839 24.78 -4.4 24.1 58 -11.5 11.2
06:45 1010 29.83 839 24.78 -5 22.9 60 -11.7 10.9
06:50 1010 29.83 839 24.78 -5.1 22.8 55 -12.8 8.9
06:55 1010 29.83 839 24.78 -4.7 23.5 54 -12.7 9.1
07:00 1010 29.83 839 24.78 -4.7 23.6 53 -12.8 9
07:05 1010 29.83 839 24.78 -4.7 23.5 53 -12.8 9
07:10 1010 29.83 839 24.78 -4.9 23.3 53 -13 8.6
07:15 1010 29.83 839 24.78 -4.8 23.4 53 -12.9 8.7
07:20 1010 29.83 839 24.78 -4.8 23.4 53 -12.9 8.8
07:25 1010 29.83 839 24.78 -4.9 23.2 55 -12.7 9.2
07:30 1010 29.83 839 24.78 -5.1 22.9 56 -12.6 9.3
07:35 1010 29.83 839 24.78 -5.2 22.6 55 -12.8 8.9
07:40 1009 29.8 839 24.78 -5.2 22.6 56 -12.7 9.2
07:45 1009 29.8 839 24.78 -5.4 22.3 59 -12.2 10
07:50 1010 29.83 839 24.78 -5.5 22 57 -12.7 9.2
07:55 1010 29.83 839 24.78 -5.4 22.3 58 -12.4 9.6
08:00 1009 29.8 839 24.78 -5.4 22.3 58 -12.4 9.6
08:05 1009 29.8 839 24.78 -5.4 22.3 56 -12.8 8.9
08:10 1009 29.8 839 24.78 -5.1 22.8 56 -12.7 9.1
08:15 1009 29.8 839 24.78 -5.1 22.8 56 -12.5 9.6
08:20 1009 29.8 838 24.75 -5.2 22.7 57 -12.5 9.5
08:25 1009 29.8 838 24.75 -5.2 22.6 58 -12.2 10
08:30 1009 29.8 838 24.75 -5.3 22.5 59 -12.1 10.2
08:35 1009 29.8 838 24.75 -5.3 22.4 59 -12.2 10
08:40 1009 29.8 838 24.75 -5.3 22.4 59 -12.2 10.1
08:45 1009 29.8 838 24.75 -5.3 22.5 58 -12.4 9.7
08:50 1009 29.8 838 24.75 -5.2 22.6 57 -12.4 9.7
08:55 1009 29.8 838 24.75 -5.2 22.7 57 -12.3 9.8
09:00 1009 29.8 838 24.75 -5.3 22.6 58 -12.3 9.8
09:05 1009 29.8 838 24.75 -5.3 22.5 58 -12.3 9.9
09:10 1009 29.8 838 24.75 -5.3 22.5 58 -12.3 9.9
09:15 1009 29.8 838 24.75 -5.3 22.5 58 -12.3 9.9
09:20 1009 29.8 838 24.75 -5.3 22.5 59 -12.2 10.1
09:25 1009 29.8 838 24.75 -5.3 22.5 58 -12.4 9.7
09:30 1009 29.8 838 24.75 -5.3 22.5 58 -12.4 9.7
09:35 1009 29.8 838 24.75 -5.2 22.6 58 -12.3 9.9
09:40 1009 29.8 838 24.75 -5.2 22.6 57 -12.4 9.8
09:45 1009 29.8 838 24.75 -5.1 22.8 57 -12.3 9.8
09:50 1009 29.8 838 24.75 -5.1 22.8 57 -12.3 9.9
09:55 1009 29.8 838 24.75 -5.1 22.8 58 -12.1 10.2
10:00 1009 29.8 838 24.75 -5.1 22.9 59 -11.9 10.5
10:05 1009 29.8 838 24.75 -5.1 22.9 58 -12 10.3
10:10 1008 29.77 838 24.75 -5 23 58 -12 10.3
10:15 1008 29.77 838 24.75 -4.9 23.2 57 -12.1 10.3
10:20 1008 29.77 838 24.75 -4.9 23.2 58 -11.9 10.5
10:25 1008 29.77 838 24.75 -4.8 23.3 57 -12 10.4
10:30 1008 29.77 838 24.75 -4.7 23.6 57 -11.9 10.6
10:35 1008 29.77 838 24.75 -4.6 23.8 56 -12.1 10.2
10:40 1008 29.77 838 24.75 -4.4 24 55 -12.2 10
10:45 1008 29.77 838 24.75 -4.4 24.2 54 -12.4 9.8
10:50 1008 29.77 838 24.75 -4.2 24.4 53 -12.4 9.7
10:55 1008 29.77 837 24.72 -4.1 24.7 52 -12.5 9.4
11:00 1008 29.77 837 24.72 -3.9 25 51 -12.5 9.4
11:05 1008 29.77 837 24.72 -3.9 25 53 -12.1 10.3
11:10 1008 29.77 837 24.72 -3.9 24.9 54 -12 10.5
11:15 1008 29.77 837 24.72 -4 24.8 55 -11.8 10.8
11:20 1008 29.77 837 24.72 -4 24.7 56 -11.6 11.1
11:25 1008 29.77 837 24.72 -4 24.8 54 -11.9 10.6
11:30 1008 29.77 837 24.72 -3.9 24.9 53 -12.1 10.3
11:35 1008 29.77 837 24.72 -3.7 25.4 53 -11.9 10.6
11:40 1008 29.77 837 24.72 -3.5 25.7 53 -11.7 10.9
11:45 1008 29.77 837 24.72 -3.5 25.7 53 -11.8 10.8
11:50 1008 29.77 837 24.72 -3.2 26.2 51 -12 10.4
11:55 1008 29.77 837 24.72 -2.8 27 51 -11.6 11.1
12:00 1008 29.77 837 24.72 -2.6 27.4 53 -10.9 12.4
12:05 1008 29.77 837 24.72 -2.9 26.8 51 -11.8 10.8
12:10 1008 29.77 837 24.72 -3 26.6 52 -11.4 11.4
12:15 1008 29.77 837 24.72 -2.9 26.9 52 -11.3 11.6
12:20 1008 29.77 837 24.72 -2.8 27 49 -12.1 10.3
12:25 1008 29.77 837 24.72 -2.1 28.2 47 -12.1 10.3
12:30 1008 29.77 837 24.72 -1.6 29.2 46 -11.7 11
12:35 1008 29.77 837 24.72 -1.1 30.1 44 -11.9 10.7
12:40 1008 29.77 837 24.72 -0.6 30.9 43 -11.7 10.9
12:45 1008 29.77 837 24.72 -0.6 30.9 40 -12.6 9.3
12:50 1008 29.77 837 24.72 0.5 32.9 37 -12.5 9.5
12:55 1008 29.77 837 24.72 1.7 35.1 36 -11.8 10.7
13:00 1008 29.77 837 24.72 1.7 35 36 -12 10.4
13:05 1008 29.77 837 24.72 1.8 35.2 35 -11.9 10.5
13:10 1007 29.74 837 24.72 1.9 35.4 34 -12.3 9.8
13:15 1007 29.74 837 24.72 1.9 35.5 34 -12.2 10.1
13:20 1007 29.74 837 24.72 1.9 35.5 35 -12.1 10.1
13:25 1007 29.74 837 24.72 2.4 36.3 35 -11.7 10.9
13:30 1007 29.74 836 24.69 2.4 36.3 35 -11.4 11.4
13:35 1007 29.74 836 24.69 2.7 36.8 34 -11.6 11.1
13:40 1007 29.74 836 24.69 2.2 36 34 -12.1 10.2
13:45 1007 29.74 836 24.69 1.4 34.6 36 -12.1 10.3
13:50 1007 29.74 836 24.69 2.5 36.5 32 -12.7 9.1
13:55 1007 29.74 836 24.69 3.2 37.8 33 -11.5 11.3
14:00 1007 29.74 836 24.69 3.5 38.4 35 -10.6 12.9
14:05 1007 29.74 836 24.69 3.2 37.7 38 -10 14.1
14:10 1007 29.74 836 24.69 1.5 34.8 43 -9.9 14.2
14:15 1007 29.74 836 24.69 1.6 34.8 39 -11 12.3
14:20 1007 29.74 836 24.69 1.8 35.2 40 -10.4 13.3
14:25 1007 29.74 836 24.69 2.1 35.8 38 -10.7 12.7
14:30 1007 29.74 836 24.69 2.3 36.2 39 -10.4 13.3
14:35 1007 29.74 836 24.69 2.5 36.6 38 -10.3 13.4
14:40 1007 29.74 836 24.69 2.5 36.5 38 -10.4 13.2
14:45 1006 29.71 836 24.69 3 37.5 36 -10.6 12.8
14:50 1007 29.74 836 24.69 2.8 37 35 -11.1 11.9
14:55 1006 29.71 836 24.69 3.2 37.8 34 -11.3 11.6
15:00 1006 29.71 836 24.69 3.3 38 33 -11.4 11.5
15:05 1006 29.71 836 24.69 3.1 37.6 32 -11.9 10.6
15:10 1006 29.71 835 24.66 2.5 36.4 37 -10.8 12.5
15:15 1006 29.71 836 24.69 2.2 36 34 -12.1 10.2
15:20 1006 29.71 836 24.69 3.1 37.5 33 -11.9 10.7
15:25 1006 29.71 835 24.66 3.6 38.4 29 -12.8 8.9
15:30 1006 29.71 835 24.66 3.8 38.9 28 -13 8.5
15:35 1006 29.71 835 24.66 4.2 39.5 27 -13.3 8
15:40 1006 29.71 835 24.66 4.3 39.8 26 -13.5 7.7
15:45 1006 29.71 835 24.66 3.9 39.1 26 -13.9 6.9
15:50 1006 29.71 835 24.66 3.1 37.5 28 -13.5 7.6
15:55 1006 29.71 835 24.66 2.6 36.7 29 -13.8 7.2
16:00 1006 29.71 836 24.69 4.1 39.4 26 -13.7 7.4
16:05 1006 29.71 836 24.69 4.7 40.5 26 -13.1 8.4
16:10 1006 29.71 836 24.69 4.1 39.4 28 -12.8 9
16:15 1006 29.71 836 24.69 3.5 38.3 26 -14.1 6.6
16:20 1006 29.71 836 24.69 4.6 40.3 29 -12.1 10.2
16:25 1006 29.71 836 24.69 4.1 39.4 31 -11.4 11.5
16:30 1006 29.71 836 24.69 3.4 38.1 31 -12.2 10
16:35 1006 29.71 836 24.69 3.3 38 32 -12.1 10.3
16:40 1007 29.74 836 24.69 2.8 37 32 -12.3 9.9
16:45 1007 29.74 836 24.69 2.4 36.3 32 -12.9 8.8
16:50 1006 29.71 836 24.69 2.5 36.4 32 -12.5 9.4
16:55 1006 29.71 836 24.69 2.2 36 32 -12.7 9.2
17:00 1006 29.71 836 24.69 2.2 36 33 -12.4 9.7
17:05 1006 29.71 836 24.69 2.3 36.1 33 -12.5 9.5
17:10 1006 29.71 836 24.69 2.5 36.5 33 -12.3 9.9
17:15 1006 29.71 836 24.69 2.9 37.3 32 -12.3 9.9
17:20 1006 29.71 836 24.69 2.9 37.2 33 -11.9 10.6
17:25 1006 29.71 836 24.69 2.5 36.4 32 -12.8 9
17:30 1006 29.71 836 24.69 2.6 36.7 32 -12.7 9.1
17:35 1006 29.71 836 24.69 3.3 37.9 30 -12.6 9.4
17:40 1006 29.71 836 24.69 3.7 38.7 31 -12 10.4
17:45 1006 29.71 836 24.69 3.4 38.1 32 -11.8 10.7
17:50 1006 29.71 836 24.69 2.6 36.7 33 -12.2 10.1
17:55 1006 29.71 836 24.69 2.1 35.8 33 -12.4 9.7
18:00 1006 29.71 836 24.69 2.5 36.6 31 -12.8 8.9
18:05 1006 29.71 836 24.69 3 37.3 31 -12.6 9.2
18:10 1006 29.71 836 24.69 2.9 37.2 32 -12.2 10
18:15 1006 29.71 836 24.69 2.5 36.5 33 -12.4 9.7
18:20 1006 29.71 835 24.66 2 35.7 34 -12.1 10.2
18:25 1006 29.71 835 24.66 1.7 35.1 34 -12.4 9.6
18:30 1006 29.71 835 24.66 1.6 34.8 35 -12.3 9.8
18:35 1006 29.71 835 24.66 1.3 34.3 36 -12.3 9.9
18:40 1006 29.71 835 24.66 1 33.9 37 -12.2 10
18:45 1006 29.71 836 24.69 0.9 33.6 38 -11.8 10.7
18:50 1006 29.71 836 24.69 0.5 32.9 42 -10.9 12.4
18:55 1006 29.71 836 24.69 0.2 32.4 42 -11.1 12
19:00 1006 29.71 836 24.69 -0.1 31.8 45 -10.8 12.6
19:05 1006 29.71 836 24.69 -0.5 31.2 46 -10.7 12.7
19:10 1006 29.71 836 24.69 -0.8 30.5 45 -11.4 11.6
19:15 1006 29.71 836 24.69 -1.1 30.1 46 -11.3 11.7
19:20 1006 29.71 836 24.69 -1.1 29.9 45 -11.6 11.1
19:25 1007 29.74 836 24.69 -1.2 29.8 49 -10.5 13
19:30 1007 29.74 836 24.69 -1.3 29.7 53 -9.6 14.6
19:35 1007 29.74 836 24.69 -1.5 29.3 55 -9.4 15.1
19:40 1007 29.74 836 24.69 -1.7 29 56 -9.2 15.4
19:45 1007 29.74 836 24.69 -1.6 29.1 56 -9.3 15.3
19:50 1007 29.74 836 24.69 -1.5 29.3 56 -9.2 15.5
19:55 1007 29.74 836 24.69 -1.6 29.1 56 -9.2 15.5
20:00 1007 29.74 836 24.69 -1.8 28.8 57 -9.2 15.4
20:05 1007 29.74 836 24.69 -2.1 28.3 58 -9.3 15.3
20:10 1007 29.74 836 24.69 -2.1 28.1 58 -9.3 15.2
20:15 1007 29.74 836 24.69 -2.1 28.2 58 -9.4 15.1
20:20 1007 29.74 836 24.69 -2.1 28.2 58 -9.3 15.2
20:25 1007 29.74 836 24.69 -2.1 28.2 58 -9.4 15.1
20:30 1007 29.74 836 24.69 -2.1 28.3 57 -9.4 15.1
20:35 1007 29.74 836 24.69 -2 28.5 57 -9.3 15.2
20:40 1007 29.74 836 24.69 -1.9 28.6 57 -9.4 15.1
20:45 1007 29.74 836 24.69 -2 28.5 58 -9.2 15.4
20:50 1007 29.74 836 24.69 -2.2 28 58 -9.4 15.1
20:55 1007 29.74 836 24.69 -2.4 27.7 58 -9.5 14.9
21:00 1007 29.74 836 24.69 -2.5 27.6 59 -9.5 14.8
21:05 1007 29.74 836 24.69 -2.5 27.5 58 -9.6 14.8
21:10 1007 29.74 836 24.69 -2.5 27.4 59 -9.6 14.8
21:15 1007 29.74 836 24.69 -2.6 27.3 59 -9.6 14.7
21:20 1007 29.74 836 24.69 -2.6 27.3 59 -9.7 14.6
21:25 1007 29.74 836 24.69 -2.6 27.4 58 -9.7 14.5
21:30 1007 29.74 836 24.69 -2.7 27.2 59 -9.6 14.6
21:35 1007 29.74 836 24.69 -2.8 26.9 59 -9.7 14.6
21:40 1007 29.74 836 24.69 -2.7 27.1 59 -9.6 14.7
21:45 1007 29.74 836 24.69 -2.6 27.3 59 -9.7 14.6
21:50 1007 29.74 836 24.69 -2.8 26.9 60 -9.6 14.7
21:55 1007 29.74 836 24.69 -3 26.5 60 -9.7 14.5
22:00 1007 29.74 837 24.72 -3 26.5 60 -9.8 14.3
22:05 1007 29.74 837 24.72 -3 26.6 60 -9.7 14.5
22:10 1007 29.74 836 24.69 -3.2 26.3 61 -9.7 14.5
22:15 1007 29.74 836 24.69 -3.2 26.2 60 -9.8 14.3
22:20 1007 29.74 837 24.72 -3.2 26.2 61 -9.8 14.4
22:25 1007 29.74 837 24.72 -3.4 25.9 61 -9.9 14.3
22:30 1007 29.74 837 24.72 -3.5 25.7 61 -9.9 14.2
22:35 1007 29.74 837 24.72 -3.5 25.7 62 -9.9 14.3
22:40 1007 29.74 837 24.72 -3.6 25.5 62 -9.8 14.4
22:45 1007 29.74 837 24.72 -3.6 25.5 62 -9.8 14.4
22:50 1007 29.74 837 24.72 -3.4 25.9 62 -9.8 14.4
22:55 1007 29.74 837 24.72 -3.4 25.8 62 -9.7 14.5
23:00 1007 29.74 837 24.72 -3.5 25.6 62 -9.7 14.5
23:05 1007 29.74 837 24.72 -3.6 25.5 63 -9.7 14.6
23:10 1007 29.74 837 24.72 -3.6 25.4 63 -9.8 14.4
23:15 1007 29.74 837 24.72 -3.7 25.3 63 -9.7 14.6
23:20 1007 29.74 837 24.72 -3.8 25.1 64 -9.8 14.4
23:25 1007 29.74 837 24.72 -3.9 25 64 -9.7 14.5
23:30 1007 29.74 837 24.72 -3.9 24.9 64 -9.8 14.4
23:35 1007 29.74 837 24.72 -3.8 25.1 64 -9.7 14.5
23:40 1007 29.74 837 24.72 -3.8 25.2 64 -9.6 14.7
23:45 1008 29.77 837 24.72 -3.8 25.1 64 -9.6 14.7
23:50 1008 29.77 837 24.72 -3.8 25.1 64 -9.7 14.6
23:55 1008 29.77 837 24.72 -3.9 25 64 -9.6 14.7
24:00 1008 29.77 837 24.72 -4 24.9 64 -9.7 14.5